Alpine, Tennessee
Current Conditions -  °F | °C
As of 1:35 AM on Saturday 29 Nov 2014 (Local Time) from KSRB Reporting Station
Clear Clear  
Wind Chill: 32°   Ceiling: Unl
Heat Index: 36°   Visibility: 10mi
Dew Point: 21°   Wind: 5mph
Humidity: 56%   Direction: 180°S
Pressure: 30.13"   Gusts: NA
Location:  36.39°N, 85.22°W
Report Text: KSRB 290735Z AUTO 18004KT 10SM CLR 02/M06 A3013 RMK
Loading
Personal Weather Stations






























Interactive Weather Map New forecast layout! Learn more

10-Day Weather Forecast

Advertisements
Track Severe Weather on mobile